x

Bay Of Campeche - 214 Nm Ne Of Veracruz, Mx (42055) Wave Buoy

5:50pm - Sat 28th May 2016 All times are UTC.

  • Sig Wave height 4.3ft
  • Swell Direction
  • Peak Period 6s
  • Average Period 5s
  • Wind
    16mph, 18mph gusts
  • Sea Temp 83°f
  • Air Temp 84°f
  • Sea Pressure 1011.9mb

More Historic Weather Station data

Upgrade to MSW Pro to gain access to the past 30 days of data for over 8000 Wavebouys and Weather Stations around the globe.

Join Pro

Comparision Forecast

View Surf forecast
   
Sat 05/28 5:50pm 4.5ft 6s 5s 16 18 mph 1011.9mb 83f 84f
4:50pm 5ft 6s 5s 16 18 mph 1011.7mb 83f 84f
3:50pm 4.5ft 7s 5s 18 20 mph 1011.6mb 83f 83f
2:50pm 5ft 6s 5s 20 22 mph 1011.7mb 83f 83f
1:50pm 5ft 7s 5s 20 22 mph 1010.9mb 83f 83f
12:50pm 5ft 6s 5s 18 20 mph 1010.2mb 83f 83f
11:50am 5ft 6s 5s 20 25 mph 1009.8mb 83f 83f
10:50am 5ft 6s 5s 18 22 mph 1009.1mb 83f 83f
9:50am 5ft 7s 5s 22 27 mph 1008.5mb 83f 82f
8:50am 5ft 6s 5s 25 27 mph 1007.6mb 83f 82f
7:50am 4.5ft 7s 5s 20 22 mph 1008.3mb 83f 82f
6:50am 4.5ft 6s 5s 18 20 mph 1008.8mb 83f 82f
5:50am 4.5ft 7s 5s 18 20 mph 1008.7mb 83f 82f
4:50am 5ft 7s 5s 18 20 mph 1009mb 83f 83f
3:50am 4.5ft 7s 5s 16 18 mph 1009.2mb 83f 83f
2:50am 4.5ft 8s 5s 16 18 mph 1008.8mb 83f 83f
1:50am 5ft 8s 5s 16 18 mph 1007.4mb 83f 83f
12:50am 5ft 7s 5s 13 16 mph 1006.5mb 83f 83f
Fri 05/27 11:50pm 5ft 7s 5s 13 18 mph 1005.9mb 83f 83f
10:50pm 5.5ft 7s 5s 16 18 mph 1006.3mb 83f 83f
9:50pm 5ft 7s 5s 16 18 mph 1006.8mb 83f 84f
8:50pm 6ft 7s 5s 16 20 mph 1007.3mb 83f 84f
7:50pm 6ft 7s 5s 18 22 mph 1008.1mb 83f 84f
6:50pm 5.5ft 7s 5s 22 25 mph 1008.2mb 83f 84f
5:50pm 5.5ft 6s 5s 22 27 mph 1008.9mb 83f 84f
4:50pm 5ft 7s 5s 22 25 mph 1008.6mb 83f 84f
3:50pm 5ft 6s 5s 20 22 mph 1009.4mb 83f 84f
2:50pm 4.5ft 6s 5s 16 20 mph 1010.2mb 83f 83f
1:50pm 4.5ft 6s 5s 18 20 mph 1009.9mb 83f 83f
12:50pm 4.5ft 6s 5s 20 22 mph 1009.7mb 83f 82f
11:50am 4.5ft 6s 5s 16 20 mph 1009.8mb 83f 83f
10:50am 4.5ft 6s 5s 16 18 mph 1009.3mb 83f 82f
9:50am 5ft 6s 5s 18 25 mph 1008.9mb 83f 82f
8:50am 5ft 6s 5s 22 27 mph 1009.1mb 83f 82f
7:50am 4.5ft 5s 5s 25 29 mph 1009.6mb 83f 82f
6:50am 4.5ft 7s 5s 22 25 mph 1010.6mb 83f 82f
5:50am 4ft 7s 5s 20 25 mph 1011.4mb 83f 82f
4:50am 4ft 7s 5s 18 20 mph 1011.7mb 83f 83f
3:50am 4ft 7s 5s 18 20 mph 1011.2mb 83f 82f
2:50am 4.5ft 7s 5s 16 20 mph 1010.8mb 83f 83f
1:50am 4.5ft 7s 5s 16 20 mph 1010.4mb 83f 83f
12:50am 4.5ft 8s 5s 16 18 mph 1009.9mb 83f 83f
Thu 05/26 11:50pm 4.5ft 7s 5s 16 20 mph 1009.9mb 84f 83f
10:50pm 5ft 8s 5s 16 18 mph 1010.4mb 84f 83f
9:50pm 5ft 8s 5s 13 16 mph 1011.3mb 84f 84f
8:50pm 6ft 7s 5s 16 18 mph 1012.2mb 84f 84f
7:50pm 5.5ft 7s 5s 16 18 mph 1012.9mb 83f 84f
6:50pm 6ft 7s 5s 16 18 mph 1013.3mb 83f 84f
5:50pm 6ft 7s 5s 18 20 mph 1013.6mb 83f 84f
4:50pm 6ft 7s 5s 18 22 mph 1013.8mb 83f 84f
3:50pm 6ft 7s 5s 20 25 mph 1013.5mb 83f 84f
2:50pm 6ft 7s 5s 22 25 mph 1013.4mb 83f 84f
1:50pm 5.5ft 6s 5s 22 25 mph 1013.5mb 83f 83f
12:50pm 6ft 6s 5s 20 25 mph 1013.4mb 83f 83f
11:50am 5ft 6s 5s 20 22 mph 1013.4mb 83f 83f
10:50am 5ft 6s 5s 20 25 mph 1012.9mb 83f 82f
9:50am 5ft 6s 5s 18 22 mph 1013mb 83f 83f
8:50am 5ft 6s 5s 22 25 mph 1012.8mb 83f 82f
7:50am 5ft 6s 5s 25 27 mph 1013mb 83f 82f
6:50am 5ft 7s 5s 22 27 mph 1013.1mb 83f 82f
5:50am 5ft 7s 5s 22 25 mph 1014mb 83f 82f
4:50am 4ft 7s 5s 20 25 mph 1014.9mb 83f 83f
3:50am 4.5ft 7s 5s 20 25 mph 1014.9mb 83f 83f
2:50am 4ft 6s 5s 18 22 mph 1014.5mb 83f 83f
1:50am 4ft 7s 5s 16 18 mph 1013.8mb 83f 83f
12:50am 4.5ft 7s 5s 16 18 mph 1013.3mb 83f 83f
Wed 05/25 11:50pm 4.5ft 7s 5s 13 18 mph 1012.9mb 83f 84f
10:50pm 4.5ft 7s 5s 16 20 mph 1012.7mb 83f 84f
9:50pm 5ft 7s 5s 18 20 mph 1013.1mb 83f 84f
8:50pm 5ft 7s 5s 16 18 mph 1013.6mb 83f 84f
7:50pm 5ft 7s 5s 18 20 mph 1014.3mb 83f 84f
6:50pm 5ft 7s 5s 18 20 mph 1014.6mb 83f 84f
5:50pm 5ft 7s 5s 18 20 mph 1014.8mb 83f 84f
4:50pm 5.5ft 7s 5s 18 22 mph 1014.9mb 83f 84f
3:50pm 5ft 7s 5s 18 22 mph 1014.7mb 83f 84f
2:50pm 5ft 7s 5s 18 22 mph 1014.5mb 83f 84f
1:50pm 5ft 6s 5s 16 18 mph 1014.2mb 83f 84f
12:50pm 5ft 6s 5s 18 20 mph 1013.9mb 83f 84f
11:50am 6ft 6s 5s 18 20 mph 1013.4mb 83f 83f
10:50am 5ft 6s 5s 20 22 mph 1013mb 83f 83f
9:50am 5.5ft 6s 5s 18 22 mph 1012.8mb 83f 83f
8:50am 5ft 6s 5s 20 22 mph 1012.8mb 83f 83f
7:50am 5ft 6s 5s 20 27 mph 1013mb 83f 83f
6:50am 5ft 6s 5s 20 27 mph 1013mb 83f 83f
5:50am 4.5ft 6s 5s 20 25 mph 1013.3mb 83f 82f
4:50am 4.5ft 5s 5s 18 25 mph 1013.7mb 83f 83f
3:50am 4ft 5s 4s 18 20 mph 1013.5mb 83f 83f
2:50am 4ft 6s 4s 18 20 mph 1012.8mb 83f 83f
1:50am 4ft 5s 4s 18 20 mph 1012.4mb 83f 83f
12:50am 3.5ft 5s 4s 18 22 mph 1011.8mb 83f 83f
Tue 05/24 11:50pm 3.5ft 6s 4s 20 22 mph 1011.3mb 83f 83f
10:50pm 3.5ft 4s 4s 18 20 mph 1011.2mb 83f 83f
9:50pm 3.5ft 6s 4s 18 22 mph 1011.3mb 83f 83f
8:50pm 3.5ft 6s 4s 18 22 mph 1011.9mb 83f 84f
7:50pm 3.5ft 6s 4s 18 20 mph 1012.1mb 83f 84f
6:50pm 3.5ft 6s 4s 16 18 mph 1012.5mb 83f 84f